Time;durP1;ratioP1;P1;durP2;ratioP2;P2;SDS_P1;SDS_P2;PMS_P1;PMS_P2;Temp;Humidity;BMP_temperature;BMP_pressure;BME280_temperature;BME280_humidity;BME280_pressure;Samples;Min_cycle;Max_cycle;Signal;HPM_P1;HPM_P2
2022/07/10 00:00:17;;;;;;;2.12;1.50;;;;;;;11.89;73.59;95574.00;1764066;81;21005;-64
2022/07/10 00:02:47;;;;;;;3.27;2.00;;;;;;;11.87;72.65;95571.84;1764297;81;20954;-65
2022/07/10 00:05:14;;;;;;;3.65;1.70;;;;;;;11.86;73.73;95562.58;1763584;81;21104;-65
2022/07/10 00:07:40;;;;;;;2.45;1.80;;;;;;;11.86;73.74;95558.61;1764111;81;21000;-65
2022/07/10 00:10:08;;;;;;;2.75;1.80;;;;;;;11.83;73.22;95554.73;1764209;81;21475;-65
2022/07/10 00:12:35;;;;;;;3.08;1.67;;;;;;;11.82;72.51;95544.61;1764211;81;21042;-64
2022/07/10 00:15:04;;;;;;;2.25;1.72;;;;;;;11.83;72.46;95538.86;1764192;81;21061;-64
2022/07/10 00:17:32;;;;;;;2.98;1.77;;;;;;;11.89;72.30;95533.02;1763888;81;21090;-65
2022/07/10 00:19:59;;;;;;;2.30;1.90;;;;;;;11.95;72.26;95530.67;1763948;81;20997;-65
2022/07/10 00:22:26;;;;;;;3.77;2.02;;;;;;;12.00;71.92;95526.59;1764018;81;20973;-65
2022/07/10 00:24:53;;;;;;;4.25;2.10;;;;;;;12.02;72.03;95530.94;1763864;81;21076;-65
2022/07/10 00:27:20;;;;;;;3.05;1.90;;;;;;;12.02;72.62;95526.97;1763964;81;21020;-65
2022/07/10 00:29:47;;;;;;;3.22;2.27;;;;;;;11.94;72.55;95527.59;1764192;81;21036;-64
2022/07/10 00:32:14;;;;;;;2.60;2.10;;;;;;;11.86;72.55;95521.59;1764393;81;21052;-65
2022/07/10 00:34:40;;;;;;;2.22;2.00;;;;;;;11.88;72.63;95527.75;1763741;81;20985;-65
2022/07/10 00:37:07;;;;;;;3.02;2.37;;;;;;;11.79;72.60;95536.77;1764157;81;21005;-65
2022/07/10 00:39:34;;;;;;;2.50;2.10;;;;;;;11.72;73.19;95536.91;1764273;81;21021;-65
2022/07/10 00:42:13;;;;;;;2.37;1.77;;;;;;;11.68;73.14;95537.45;1763976;81;21012;-65
2022/07/10 00:44:41;;;;;;;2.33;2.00;;;;;;;11.56;73.68;95528.48;1764096;81;21013;-64
2022/07/10 00:47:10;;;;;;;2.77;1.80;;;;;;;11.54;72.72;95519.72;1764142;81;21487;-65
2022/07/10 00:49:38;;;;;;;3.20;2.30;;;;;;;11.45;74.28;95531.39;1767076;81;20997;-64
2022/07/10 00:52:16;;;;;;;6.33;2.20;;;;;;;11.33;74.04;95533.84;1767026;81;21024;-65
2022/07/10 00:54:46;;;;;;;2.43;2.03;;;;;;;11.26;73.16;95527.86;1767276;81;20993;-64
2022/07/10 00:57:14;;;;;;;3.83;2.10;;;;;;;11.19;74.45;95524.93;1767076;81;21021;-64
2022/07/10 00:59:41;;;;;;;2.20;1.93;;;;;;;11.15;75.40;95519.73;1767127;81;21012;-64
2022/07/10 01:02:09;;;;;;;3.47;2.07;;;;;;;11.12;74.78;95523.32;1767175;81;21001;-64
2022/07/10 01:04:36;;;;;;;3.53;2.17;;;;;;;11.09;75.39;95526.45;1767298;81;21033;-64
2022/07/10 01:07:04;;;;;;;2.57;2.23;;;;;;;11.16;74.95;95526.33;1767200;81;20996;-64
2022/07/10 01:09:32;;;;;;;4.87;1.87;;;;;;;11.16;74.63;95523.69;1767126;81;21012;-64
2022/07/10 01:12:02;;;;;;;2.93;1.87;;;;;;;11.17;75.52;95528.05;1767200;81;21072;-64
2022/07/10 01:14:30;;;;;;;3.70;1.87;;;;;;;11.21;74.54;95516.95;1767399;81;20981;-65
2022/07/10 01:16:58;;;;;;;1.70;1.60;;;;;;;11.22;74.59;95514.75;1767245;81;21001;-64
2022/07/10 01:19:25;;;;;;;3.33;1.93;;;;;;;11.22;74.32;95506.37;1767333;81;21490;-64
2022/07/10 01:21:52;;;;;;;2.73;1.90;;;;;;;11.25;74.48;95518.63;1767192;81;21005;-64
2022/07/10 01:24:19;;;;;;;3.50;1.90;;;;;;;11.31;74.39;95506.59;1766999;81;21511;-64
2022/07/10 01:26:46;;;;;;;2.87;1.90;;;;;;;11.42;74.32;95509.02;1767307;81;20993;-64
2022/07/10 01:29:12;;;;;;;3.00;1.80;;;;;;;11.45;74.03;95505.83;1767219;81;21032;-64
2022/07/10 01:31:39;;;;;;;1.93;1.73;;;;;;;11.40;75.21;95507.71;1767277;81;21016;-64
2022/07/10 01:34:09;;;;;;;2.07;1.87;;;;;;;11.39;74.62;95502.03;1767166;81;21004;-64
2022/07/10 01:36:37;;;;;;;2.62;1.98;;;;;;;11.48;74.45;95499.61;1767107;81;21004;-64
2022/07/10 01:39:05;;;;;;;2.40;1.80;;;;;;;11.59;74.10;95500.23;1767264;81;21550;-64
2022/07/10 01:41:32;;;;;;;3.67;1.80;;;;;;;11.58;74.33;95494.98;1767561;81;20997;-64
2022/07/10 01:43:59;;;;;;;3.20;1.63;;;;;;;11.64;74.26;95496.13;1767098;81;20938;-64
2022/07/10 01:46:26;;;;;;;4.83;1.90;;;;;;;11.67;74.32;95496.95;1766948;81;21056;-65
2022/07/10 01:48:53;;;;;;;4.40;2.08;;;;;;;11.80;74.73;95496.19;1767241;81;21021;-65
2022/07/10 01:51:20;;;;;;;2.17;1.93;;;;;;;11.93;74.04;95491.49;1767024;81;20996;-65
2022/07/10 01:53:47;;;;;;;2.50;2.22;;;;;;;12.08;73.97;95488.45;1767252;81;21459;-65
2022/07/10 01:56:15;;;;;;;3.95;2.00;;;;;;;12.17;73.38;95482.50;1767191;81;21048;-64
2022/07/10 01:58:42;;;;;;;5.12;2.87;;;;;;;12.18;72.99;95482.47;1767054;81;21554;-65
2022/07/10 02:01:10;;;;;;;2.83;2.25;;;;;;;12.22;72.74;95477.95;1767549;81;20953;-65
2022/07/10 02:06:23;;;;;;;3.45;2.10;;;;;;;12.22;73.99;95472.66;1766943;81;21013;-64
2022/07/10 02:08:49;;;;;;;4.92;2.72;;;;;;;12.23;73.30;95471.77;1767263;81;20997;-64
2022/07/10 02:11:16;;;;;;;6.03;2.85;;;;;;;12.20;72.92;95468.75;1767149;81;20984;-64
2022/07/10 02:13:43;;;;;;;3.17;2.20;;;;;;;12.18;74.24;95464.41;1767267;81;21041;-64
2022/07/10 02:16:10;;;;;;;4.22;2.15;;;;;;;12.17;73.85;95457.37;1767304;81;20984;-65
2022/07/10 02:18:38;;;;;;;3.47;2.52;;;;;;;12.16;74.42;95459.16;1767203;81;21506;-65
2022/07/10 02:21:05;;;;;;;4.00;2.52;;;;;;;12.20;74.46;95454.66;1767095;81;21052;-64
2022/07/10 02:23:32;;;;;;;3.40;2.35;;;;;;;12.17;74.49;95451.65;1767330;81;20976;-64
2022/07/10 02:25:59;;;;;;;2.30;2.10;;;;;;;12.17;73.98;95455.62;1767027;81;21005;-65
2022/07/10 02:28:25;;;;;;;2.10;1.87;;;;;;;12.26;74.22;95454.48;1767386;81;21020;-64
2022/07/10 02:30:52;;;;;;;2.72;2.08;;;;;;;12.27;74.09;95449.16;1766993;81;21009;-65
2022/07/10 02:33:20;;;;;;;1.87;1.75;;;;;;;12.29;74.00;95453.07;1767026;81;21538;-64
2022/07/10 02:35:46;;;;;;;4.12;2.25;;;;;;;12.28;73.62;95450.89;1766919;81;21052;-64
2022/07/10 02:38:13;;;;;;;1.85;1.75;;;;;;;12.29;73.79;95452.61;1767248;81;20997;-64
2022/07/10 02:40:41;;;;;;;5.37;1.87;;;;;;;12.38;73.66;95449.32;1767518;81;21467;-64
2022/07/10 02:43:09;;;;;;;1.90;1.80;;;;;;;12.41;73.86;95450.55;1767205;81;21028;-64
2022/07/10 02:45:36;;;;;;;2.30;1.80;;;;;;;12.40;73.62;95445.72;1767237;81;21005;-65
2022/07/10 02:48:04;;;;;;;2.50;1.90;;;;;;;12.38;73.51;95446.22;1766773;81;20993;-64
2022/07/10 02:50:31;;;;;;;2.25;1.98;;;;;;;12.38;74.22;95446.22;1767416;81;21024;-65
2022/07/10 02:52:58;;;;;;;3.00;1.90;;;;;;;12.41;74.01;95444.80;1767026;81;21004;-64
2022/07/10 02:55:24;;;;;;;1.92;1.70;;;;;;;12.41;73.78;95451.41;1767113;81;21534;-64
2022/07/10 02:57:51;;;;;;;7.50;2.20;;;;;;;12.39;73.97;95449.26;1734709;81;21020;-64
2022/07/10 03:00:18;;;;;;;3.22;2.10;;;;;;;12.42;74.90;95450.48;1767240;81;21427;-65
2022/07/10 03:02:45;;;;;;;4.17;2.60;;;;;;;12.44;74.00;95447.81;1766993;81;20985;-64
2022/07/10 03:05:11;;;;;;;2.60;1.95;;;;;;;12.43;75.20;95442.13;1767186;81;20973;-64
2022/07/10 03:07:38;;;;;;;2.20;1.90;;;;;;;12.43;74.28;95444.77;1766581;81;21109;-64
2022/07/10 03:10:06;;;;;;;4.00;2.05;;;;;;;12.38;74.70;95440.06;1767282;81;20977;-64
2022/07/10 03:12:35;;;;;;;6.03;2.27;;;;;;;12.40;75.25;95446.15;1767294;81;21056;-64
2022/07/10 03:15:06;;;;;;;2.90;1.90;;;;;;;12.41;74.31;95443.47;1767116;81;20985;-64
2022/07/10 03:17:32;;;;;;;2.77;2.10;;;;;;;12.48;74.47;95440.21;1767137;81;21001;-65
2022/07/10 03:19:59;;;;;;;2.77;1.77;;;;;;;12.49;74.39;95440.61;1767207;81;21455;-64
2022/07/10 03:22:26;;;;;;;2.55;1.95;;;;;;;12.44;74.50;95427.97;1766293;81;21096;-64
2022/07/10 03:24:53;;;;;;;2.37;2.10;;;;;;;12.49;74.28;95431.34;1767291;81;20988;-64
2022/07/10 03:27:20;;;;;;;2.92;2.33;;;;;;;12.53;75.18;95426.39;1766864;81;21064;-64
2022/07/10 03:29:46;;;;;;;3.77;1.90;;;;;;;12.59;74.25;95431.48;1767074;81;21391;-65
2022/07/10 03:32:13;;;;;;;1.75;1.65;;;;;;;12.65;73.86;95436.63;1767169;81;21052;-64
2022/07/10 03:34:40;;;;;;;4.67;1.87;;;;;;;12.69;73.50;95436.06;1767241;81;21432;-64
2022/07/10 03:37:07;;;;;;;2.58;2.00;;;;;;;12.72;73.04;95431.53;1766553;81;20978;-65
2022/07/10 03:39:33;;;;;;;2.58;1.92;;;;;;;12.72;73.07;95433.32;1767217;81;21493;-64
2022/07/10 03:42:00;;;;;;;1.92;1.80;;;;;;;12.73;73.21;95431.97;1766867;81;21025;-64
2022/07/10 03:44:27;;;;;;;2.40;2.20;;;;;;;12.81;74.91;95437.49;1766964;81;21013;-64
2022/07/10 03:46:53;;;;;;;2.70;2.20;;;;;;;12.90;73.95;95434.12;1767287;81;21020;-64
2022/07/10 03:49:20;;;;;;;1.98;1.80;;;;;;;12.86;72.23;95435.58;1766780;81;21060;-64
2022/07/10 03:51:47;;;;;;;2.10;1.90;;;;;;;12.94;72.48;95433.55;1766976;81;21068;-64
2022/07/10 03:54:14;;;;;;;3.85;2.15;;;;;;;12.98;72.49;95437.39;1767281;81;21013;-64
2022/07/10 03:59:26;;;;;;;5.12;2.20;;;;;;;13.18;72.65;95438.11;1767098;81;21502;-65
2022/07/10 04:01:52;;;;;;;2.30;1.80;;;;;;;13.26;74.03;95435.67;1767206;81;20989;-65
2022/07/10 04:04:19;;;;;;;2.95;2.00;;;;;;;13.27;71.97;95439.61;1767092;81;20970;-64
2022/07/10 04:06:46;;;;;;;2.70;1.60;;;;;;;13.31;72.36;95435.97;1767064;81;21028;-65
2022/07/10 04:09:13;;;;;;;2.87;1.60;;;;;;;13.39;72.04;95429.95;1766836;81;21052;-64
2022/07/10 04:11:39;;;;;;;2.65;1.77;;;;;;;13.43;72.16;95432.06;1766995;81;21484;-65
2022/07/10 04:14:06;;;;;;;2.85;1.90;;;;;;;13.53;72.05;95432.61;1767190;81;20970;-64
2022/07/10 04:16:33;;;;;;;2.10;1.90;;;;;;;13.61;71.07;95431.45;1767021;81;21021;-64
2022/07/10 04:18:59;;;;;;;2.58;1.72;;;;;;;13.60;70.39;95432.81;1767151;81;21037;-65
2022/07/10 04:21:27;;;;;;;4.12;1.92;;;;;;;13.62;71.73;95434.50;1766913;81;21713;-65
2022/07/10 04:23:54;;;;;;;2.37;2.00;;;;;;;13.73;71.18;95440.77;1767029;81;21522;-65
2022/07/10 04:26:21;;;;;;;1.90;1.80;;;;;;;13.84;70.59;95440.43;1767107;81;21443;-64
2022/07/10 04:28:47;;;;;;;2.30;1.87;;;;;;;13.89;69.85;95438.48;1767162;81;21036;-64
2022/07/10 04:31:14;;;;;;;4.20;2.50;;;;;;;13.94;69.97;95444.50;1766821;81;21127;-64
2022/07/10 04:33:41;;;;;;;3.60;2.20;;;;;;;14.05;70.00;95448.10;1766877;81;20973;-65
2022/07/10 04:36:07;;;;;;;4.72;2.60;;;;;;;14.11;69.65;95444.36;1767193;81;20993;-64
2022/07/10 04:38:34;;;;;;;4.87;2.67;;;;;;;14.14;69.62;95440.30;1766876;81;21510;-65
2022/07/10 04:41:01;;;;;;;3.98;2.35;;;;;;;14.20;69.30;95447.56;1767060;81;21063;-64
2022/07/10 04:43:28;;;;;;;4.62;2.42;;;;;;;14.22;69.33;95443.55;1766806;81;21133;-65
2022/07/10 04:45:54;;;;;;;5.15;2.40;;;;;;;14.23;69.48;95439.95;1764323;81;21052;-65
2022/07/10 04:48:21;;;;;;;4.30;2.50;;;;;;;14.24;69.49;95439.91;1766380;81;21060;-64
2022/07/10 04:50:48;;;;;;;3.67;2.30;;;;;;;14.14;70.66;95441.16;1764167;81;21487;-65
2022/07/10 04:53:15;;;;;;;3.55;2.52;;;;;;;14.09;70.58;95436.95;1763874;81;21491;-65
2022/07/10 04:55:41;;;;;;;3.58;2.33;;;;;;;14.09;69.91;95438.27;1764202;81;21009;-64
2022/07/10 04:58:08;;;;;;;4.37;2.65;;;;;;;14.13;69.59;95444.72;1764250;81;21510;-64
2022/07/10 05:00:34;;;;;;;3.15;2.30;;;;;;;14.12;69.52;95432.38;1764047;81;21562;-64
2022/07/10 05:03:01;;;;;;;3.77;2.25;;;;;;;14.09;69.97;95436.95;1764175;81;21444;-64
2022/07/10 05:05:28;;;;;;;2.92;2.10;;;;;;;14.04;70.58;95442.41;1764253;81;21005;-65
2022/07/10 05:07:55;;;;;;;2.67;2.30;;;;;;;14.02;70.62;95439.79;1763997;81;20970;-65
2022/07/10 05:10:22;;;;;;;3.47;2.62;;;;;;;14.00;70.65;95444.27;1763807;81;21068;-64
2022/07/10 05:12:49;;;;;;;3.02;2.30;;;;;;;13.99;70.77;95441.70;1764171;81;21475;-64
2022/07/10 05:15:16;;;;;;;3.62;2.10;;;;;;;13.96;70.65;95441.77;1763500;81;21108;-64
2022/07/10 05:17:42;;;;;;;3.05;2.37;;;;;;;13.88;70.86;95437.20;1763866;81;21025;-64
2022/07/10 05:20:11;;;;;;;3.62;3.10;;;;;;;13.87;70.88;95440.31;1764033;81;21096;-64
2022/07/10 05:22:38;;;;;;;2.98;2.50;;;;;;;13.89;70.59;95442.93;1763854;81;21076;-65
2022/07/10 05:25:05;;;;;;;3.45;2.70;;;;;;;13.87;70.80;95447.41;1764204;81;20993;-64
2022/07/10 05:27:32;;;;;;;5.22;2.65;;;;;;;13.87;70.82;95446.09;1764139;81;21009;-64
2022/07/10 05:29:58;;;;;;;6.35;2.83;;;;;;;13.87;71.04;95450.92;1764213;81;20977;-64
2022/07/10 05:32:25;;;;;;;6.55;2.50;;;;;;;13.82;71.92;95447.09;1764136;81;21463;-64
2022/07/10 05:34:51;;;;;;;3.55;2.37;;;;;;;13.83;73.54;95450.17;1763914;81;21514;-65
2022/07/10 05:37:18;;;;;;;2.45;2.25;;;;;;;13.89;73.10;95453.08;1764179;81;21009;-64
2022/07/10 05:39:45;;;;;;;4.70;2.47;;;;;;;13.90;74.12;95453.47;1764221;81;20996;-64
2022/07/10 05:42:12;;;;;;;6.87;2.60;;;;;;;13.96;73.68;95455.93;1764252;81;21048;-65
2022/07/10 05:44:38;;;;;;;5.47;2.58;;;;;;;14.03;74.37;95454.77;1764161;81;21050;-65
2022/07/10 05:47:06;;;;;;;4.47;2.30;;;;;;;14.13;74.61;95460.63;1763947;81;21135;-64
2022/07/10 05:49:33;;;;;;;3.83;2.60;;;;;;;14.21;74.90;95454.62;1765792;81;20985;-65
2022/07/10 05:52:00;;;;;;;3.37;3.02;;;;;;;14.18;74.75;95454.70;1766909;81;21045;-65
2022/07/10 05:54:26;;;;;;;15.75;12.73;;;;;;;14.24;74.14;95462.94;1767160;81;20992;-64
2022/07/10 05:56:53;;;;;;;10.90;6.50;;;;;;;14.33;74.73;95463.92;1767243;81;21013;-65
2022/07/10 05:59:20;;;;;;;7.30;3.10;;;;;;;14.33;75.43;95461.73;1767512;81;21009;-65
2022/07/10 06:01:46;;;;;;;7.05;2.70;;;;;;;14.29;76.23;95461.84;1767272;81;21005;-65
2022/07/10 06:04:13;;;;;;;3.50;2.90;;;;;;;14.33;75.46;95460.41;1767288;81;21044;-65
2022/07/10 06:06:40;;;;;;;5.05;4.55;;;;;;;14.33;75.21;95471.02;1767120;81;21041;-64
2022/07/10 06:09:06;;;;;;;3.83;2.83;;;;;;;14.36;75.21;95469.58;1767275;81;20981;-65
2022/07/10 06:11:33;;;;;;;6.00;2.50;;;;;;;14.41;76.44;95467.63;1766782;81;21559;-65
2022/07/10 06:14:01;;;;;;;8.33;2.50;;;;;;;14.50;75.79;95473.48;1767390;81;20989;-64
2022/07/10 06:16:28;;;;;;;2.98;2.50;;;;;;;14.57;75.34;95474.64;1766936;81;21068;-65
2022/07/10 06:18:54;;;;;;;5.35;2.60;;;;;;;14.51;75.13;95471.69;1767216;81;21016;-64
2022/07/10 06:21:21;;;;;;;3.85;2.40;;;;;;;14.56;75.05;95481.71;1767303;81;21052;-64
2022/07/10 06:23:48;;;;;;;5.78;3.40;;;;;;;14.60;74.47;95482.48;1767066;81;20988;-65
2022/07/10 06:26:14;;;;;;;4.78;2.90;;;;;;;14.55;76.74;95483.97;1767123;81;21060;-65
2022/07/10 06:28:41;;;;;;;4.20;3.08;;;;;;;14.58;76.55;95479.02;1767257;81;21472;-65
2022/07/10 06:31:08;;;;;;;3.20;2.90;;;;;;;14.66;76.29;95479.59;1767300;81;21028;-65
2022/07/10 06:33:35;;;;;;;5.28;3.00;;;;;;;14.69;76.21;95481.70;1767285;81;21538;-65
2022/07/10 06:36:02;;;;;;;5.97;3.05;;;;;;;14.74;76.95;95484.62;1767139;81;21040;-64
2022/07/10 06:38:29;;;;;;;4.70;3.47;;;;;;;14.71;76.87;95481.16;1766621;81;20977;-65
2022/07/10 06:40:55;;;;;;;3.60;3.30;;;;;;;14.77;76.72;95481.88;1767457;81;21008;-65
2022/07/10 06:43:22;;;;;;;5.20;3.20;;;;;;;14.79;76.67;95480.02;1767301;81;21005;-64
2022/07/10 06:45:49;;;;;;;4.00;2.58;;;;;;;14.86;76.43;95482.84;1767219;81;21507;-64
2022/07/10 06:48:17;;;;;;;3.77;3.00;;;;;;;14.85;76.26;95479.33;1767244;81;21005;-65
2022/07/10 06:50:43;;;;;;;3.33;2.85;;;;;;;14.90;75.91;95479.17;1764350;81;21542;-65
2022/07/10 06:53:10;;;;;;;2.85;2.50;;;;;;;14.89;76.44;95479.64;1764118;81;21013;-65
2022/07/10 06:55:38;;;;;;;6.53;3.55;;;;;;;14.87;76.51;95480.62;1764290;81;21032;-65
2022/07/10 06:58:05;;;;;;;8.50;4.42;;;;;;;14.93;76.97;95478.58;1763958;81;21570;-65
2022/07/10 07:00:31;;;;;;;12.75;5.30;;;;;;;14.96;76.58;95468.77;1764186;81;20973;-65
2022/07/10 07:02:58;;;;;;;8.65;4.97;;;;;;;14.97;76.47;95470.05;1764279;81;21045;-65
2022/07/10 07:05:25;;;;;;;18.75;9.55;;;;;;;14.94;75.74;95470.14;1764008;81;21020;-65
2022/07/10 07:07:52;;;;;;;7.47;5.00;;;;;;;15.00;76.18;95469.92;1763764;81;21057;-64
2022/07/10 07:10:19;;;;;;;6.08;3.80;;;;;;;15.09;76.30;95462.95;1764016;81;20970;-65
2022/07/10 07:12:45;;;;;;;5.78;3.27;;;;;;;15.17;75.53;95465.74;1763972;81;21083;-65
2022/07/10 07:15:15;;;;;;;11.28;6.00;;;;;;;15.23;75.63;95469.04;1763836;81;21036;-65
2022/07/10 07:17:56;;;;;;;14.63;7.25;;;;;;;15.27;75.11;95458.70;1764153;81;21001;-65
2022/07/10 07:23:10;;;;;;;20.15;5.87;;;;;;;15.33;74.67;95453.13;1764342;81;21004;-65
2022/07/10 07:25:46;;;;;;;4.92;3.47;;;;;;;15.42;74.44;95442.61;1764170;81;21558;-65
2022/07/10 07:28:17;;;;;;;9.00;3.92;;;;;;;15.52;74.22;95445.74;1763830;81;21085;-65
2022/07/10 07:30:46;;;;;;;4.60;2.50;;;;;;;15.65;74.24;95445.67;1729597;81;21084;-64
2022/07/10 07:33:14;;;;;;;2.67;2.22;;;;;;;15.78;73.53;95445.59;1763850;81;21525;-65
2022/07/10 07:35:41;;;;;;;3.08;2.58;;;;;;;15.81;73.78;95441.08;1764181;81;20994;-65
2022/07/10 07:38:07;;;;;;;5.15;3.12;;;;;;;15.95;73.11;95444.00;1764085;81;21018;-65
2022/07/10 07:40:37;;;;;;;4.58;3.25;;;;;;;16.13;73.92;95444.58;1759359;81;21044;-65
2022/07/10 07:43:04;;;;;;;3.50;3.10;;;;;;;16.28;73.44;95443.05;1764372;81;21005;-65
2022/07/10 07:45:30;;;;;;;5.12;3.10;;;;;;;16.40;73.18;95441.63;1764189;81;20988;-65
2022/07/10 07:47:59;;;;;;;3.52;2.95;;;;;;;16.53;73.03;95445.95;1763767;81;21508;-65
2022/07/10 07:50:31;;;;;;;3.98;3.37;;;;;;;16.57;71.95;95443.56;1765994;81;21128;-65
2022/07/10 07:52:58;;;;;;;4.40;3.10;;;;;;;16.63;71.73;95451.27;1767112;81;21009;-65
2022/07/10 07:55:25;;;;;;;5.42;3.27;;;;;;;16.66;71.11;95448.02;1767183;81;20980;-65
2022/07/10 07:57:54;;;;;;;3.95;3.20;;;;;;;16.64;71.13;95440.56;1767189;81;20958;-64
2022/07/10 08:00:23;;;;;;;4.12;3.12;;;;;;;16.66;70.68;95441.83;1767236;81;21004;-65
2022/07/10 08:02:52;;;;;;;3.52;2.75;;;;;;;16.77;70.95;95444.00;1766898;81;21061;-65
2022/07/10 08:05:20;;;;;;;4.25;2.90;;;;;;;16.76;69.77;95443.14;1767143;81;21455;-64
2022/07/10 08:07:51;;;;;;;4.60;3.20;;;;;;;16.73;70.10;95432.63;1767188;81;21009;-65
2022/07/10 08:10:21;;;;;;;3.35;3.05;;;;;;;16.66;70.96;95431.17;1766119;81;21040;-65
2022/07/10 08:12:48;;;;;;;4.08;3.30;;;;;;;16.64;71.31;95431.70;1767063;81;21036;-64
2022/07/10 08:15:17;;;;;;;6.28;3.62;;;;;;;16.69;71.05;95427.51;1767200;81;21020;-64
2022/07/10 08:17:51;;;;;;;3.42;3.10;;;;;;;16.67;70.35;95428.90;1767090;81;21510;-65
2022/07/10 08:20:18;;;;;;;3.62;3.10;;;;;;;16.71;69.35;95426.50;1766637;81;20977;-64
2022/07/10 08:22:48;;;;;;;3.67;3.10;;;;;;;16.69;69.83;95424.84;1767193;81;21036;-65
2022/07/10 08:25:15;;;;;;;4.90;3.12;;;;;;;16.76;70.56;95421.83;1766776;81;21044;-65
2022/07/10 08:27:42;;;;;;;8.98;3.50;;;;;;;16.87;70.11;95417.37;1767063;81;21032;-65
2022/07/10 08:30:10;;;;;;;7.67;3.42;;;;;;;16.97;71.15;95419.14;1767108;81;20989;-64
2022/07/10 08:32:39;;;;;;;4.72;3.15;;;;;;;17.03;69.50;95414.41;1767253;81;21020;-65
2022/07/10 08:35:08;;;;;;;3.70;3.00;;;;;;;17.20;69.68;95418.91;1739183;81;20989;-65
2022/07/10 08:37:43;;;;;;;3.47;3.17;;;;;;;17.38;68.93;95410.98;1767003;81;20981;-65
2022/07/10 08:40:13;;;;;;;3.85;3.17;;;;;;;17.53;68.93;95416.90;1767076;81;21020;-65
2022/07/10 08:42:44;;;;;;;3.47;2.72;;;;;;;17.87;69.30;95415.28;1767097;81;20961;-65
2022/07/10 08:45:12;;;;;;;6.67;2.90;;;;;;;18.37;67.82;95419.86;1766923;81;21057;-65
2022/07/10 08:47:41;;;;;;;3.17;2.85;;;;;;;18.61;66.10;95408.33;1767262;81;21490;-64
2022/07/10 08:50:20;;;;;;;2.95;2.33;;;;;;;18.72;62.89;95405.08;1766965;81;21026;-65
2022/07/10 08:53:05;;;;;;;3.47;2.52;;;;;;;18.93;62.89;95408.45;1766699;81;21028;-65
2022/07/10 08:55:32;;;;;;;5.53;2.60;;;;;;;18.93;61.71;95407.98;1767080;81;21036;-65
2022/07/10 08:57:59;;;;;;;3.90;2.40;;;;;;;19.16;59.48;95405.85;1767096;81;20989;-65
2022/07/10 09:00:26;;;;;;;4.28;2.92;;;;;;;19.35;59.46;95398.53;1767040;81;21017;-66
2022/07/10 09:02:56;;;;;;;3.50;2.05;;;;;;;19.70;59.95;95397.48;1767189;81;20993;-65
2022/07/10 09:05:25;;;;;;;3.05;2.25;;;;;;;19.99;57.01;95394.47;1766691;81;21514;-65
2022/07/10 09:07:53;;;;;;;3.33;2.60;;;;;;;20.18;56.66;95396.91;1767050;81;21463;-65
2022/07/10 09:10:26;;;;;;;4.40;2.50;;;;;;;20.16;55.19;95386.30;1766991;81;21487;-65
2022/07/10 09:12:59;;;;;;;4.15;2.70;;;;;;;20.30;57.01;95384.97;1767188;81;21021;-65
2022/07/10 09:15:32;;;;;;;4.10;2.40;;;;;;;20.40;55.49;95379.06;1767359;81;21044;-65
2022/07/10 09:18:07;;;;;;;4.12;2.30;;;;;;;20.52;54.30;95374.30;1767109;81;21013;-65
2022/07/10 09:20:46;;;;;;;6.15;2.58;;;;;;;20.70;54.75;95375.02;1767026;81;20945;-65
2022/07/10 09:23:20;;;;;;;2.52;2.33;;;;;;;20.98;54.68;95363.91;1767278;81;21032;-65
2022/07/10 09:25:49;;;;;;;3.15;2.77;;;;;;;21.15;51.06;95357.84;1767162;81;20992;-65
2022/07/10 09:28:20;;;;;;;2.17;1.90;;;;;;;21.26;49.08;95357.14;1766963;81;21057;-65
2022/07/10 09:30:48;;;;;;;2.92;2.00;;;;;;;21.12;45.94;95355.84;1767344;81;20965;-65
2022/07/10 09:33:25;;;;;;;1.85;1.72;;;;;;;20.79;46.55;95353.00;1767523;81;20993;-65
2022/07/10 09:36:05;;;;;;;3.70;1.90;;;;;;;20.49;46.95;95354.39;1767392;81;20992;-65
2022/07/10 09:38:54;;;;;;;3.12;1.70;;;;;;;20.78;50.47;95350.41;1767000;81;21025;-65
2022/07/10 09:41:28;;;;;;;3.80;1.92;;;;;;;21.01;46.23;95340.41;1766959;81;21009;-65
2022/07/10 09:44:04;;;;;;;2.47;2.22;;;;;;;21.48;48.98;95345.91;1767330;81;21032;-65
2022/07/10 09:46:36;;;;;;;2.30;2.10;;;;;;;22.02;49.14;95342.32;1767226;81;21495;-65
2022/07/10 09:49:12;;;;;;;2.35;1.87;;;;;;;22.46;46.49;95331.24;1767262;81;21502;-65
2022/07/10 09:51:44;;;;;;;2.12;1.70;;;;;;;22.83;44.70;95327.77;1767199;81;21060;-65
2022/07/10 09:54:12;;;;;;;1.75;1.65;;;;;;;23.08;42.74;95321.06;1767009;81;21017;-65
2022/07/10 09:56:46;;;;;;;1.70;1.47;;;;;;;23.07;41.12;95321.16;1767011;81;21013;-65
2022/07/10 09:59:15;;;;;;;1.67;1.52;;;;;;;23.32;43.16;95321.09;1767256;81;21017;-65
2022/07/10 10:01:51;;;;;;;2.05;1.40;;;;;;;23.64;39.93;95317.85;1767153;81;20997;-65
2022/07/10 10:04:25;;;;;;;2.50;1.47;;;;;;;23.97;38.31;95315.82;1767304;81;21048;-65
2022/07/10 10:06:56;;;;;;;1.62;1.50;;;;;;;24.13;36.13;95310.60;1767441;81;21459;-65
2022/07/10 10:09:49;;;;;;;1.70;1.60;;;;;;;23.93;37.67;95306.24;1767149;81;21013;-65
2022/07/10 10:12:30;;;;;;;1.50;1.40;;;;;;;23.64;36.78;95308.42;1767270;81;21052;-65
2022/07/10 10:14:58;;;;;;;1.80;1.70;;;;;;;23.20;37.74;95307.67;1767377;81;21507;-65
2022/07/10 10:17:27;;;;;;;2.35;1.27;;;;;;;23.52;38.19;95303.95;1767177;81;21017;-65
2022/07/10 10:22:44;;;;;;;1.47;1.37;;;;;;;23.27;35.47;95311.14;1767302;81;21009;-65
2022/07/10 10:25:12;;;;;;;1.82;1.57;;;;;;;23.28;34.65;95299.88;1767081;81;21056;-65
2022/07/10 10:27:39;;;;;;;1.60;1.47;;;;;;;23.25;37.02;95305.01;1767547;81;21000;-65
2022/07/10 10:30:08;;;;;;;1.67;1.57;;;;;;;23.37;35.52;95297.87;1767182;81;21004;-65
2022/07/10 10:32:42;;;;;;;1.85;1.60;;;;;;;23.13;36.12;95302.36;1767119;81;21040;-65
2022/07/10 10:35:09;;;;;;;1.75;1.50;;;;;;;22.87;37.37;95304.58;1767133;81;21016;-65
2022/07/10 10:37:44;;;;;;;1.95;1.75;;;;;;;23.23;38.21;95296.67;1767042;81;21017;-65
2022/07/10 10:40:11;;;;;;;1.95;1.65;;;;;;;23.17;37.55;95296.64;1766330;81;21582;-65
2022/07/10 10:42:43;;;;;;;2.08;1.42;;;;;;;23.21;37.31;95296.80;1736292;81;21017;-65
2022/07/10 10:45:32;;;;;;;1.77;1.47;;;;;;;23.65;36.25;95298.50;1767211;81;21013;-65
2022/07/10 10:48:04;;;;;;;2.98;1.30;;;;;;;23.64;34.53;95299.49;1767153;81;21083;-65
2022/07/10 10:50:42;;;;;;;2.30;1.82;;;;;;;23.05;34.82;95302.42;1766260;81;20993;-65
2022/07/10 10:53:27;;;;;;;2.35;1.60;;;;;;;22.77;36.28;95303.52;1761097;81;21028;-65
2022/07/10 10:56:08;;;;;;;1.65;1.55;;;;;;;22.55;37.84;95295.26;1763853;81;21017;-65
2022/07/10 10:58:44;;;;;;;1.80;1.47;;;;;;;22.66;37.98;95296.72;1763737;81;21052;-65
2022/07/10 11:01:28;;;;;;;3.22;1.70;;;;;;;22.46;38.82;95300.33;1764002;81;21088;-65
2022/07/10 11:04:19;;;;;;;2.87;1.80;;;;;;;22.22;39.06;95297.51;1763633;81;21036;-65
2022/07/10 11:06:52;;;;;;;1.85;1.50;;;;;;;22.12;38.60;95294.20;1763022;81;21024;-65
2022/07/10 11:09:31;;;;;;;1.70;1.60;;;;;;;22.72;39.98;95287.34;1764395;81;21009;-65
2022/07/10 11:12:12;;;;;;;1.98;1.52;;;;;;;23.32;37.30;95276.67;1762083;81;21478;-65
2022/07/10 11:14:46;;;;;;;3.50;1.62;;;;;;;23.90;36.93;95277.34;1764177;81;21479;-65
2022/07/10 11:17:13;;;;;;;1.85;1.50;;;;;;;24.38;35.21;95275.86;1764280;81;21009;-65
2022/07/10 11:19:40;;;;;;;2.75;1.60;;;;;;;24.81;34.65;95268.44;1763962;81;21498;-66
2022/07/10 11:22:29;;;;;;;1.80;1.65;;;;;;;25.02;33.56;95261.79;1764313;81;21451;-65
2022/07/10 11:25:10;;;;;;;1.77;1.67;;;;;;;24.83;31.93;95271.88;1763936;81;21061;-65
2022/07/10 11:28:10;;;;;;;2.05;1.67;;;;;;;24.99;33.77;95258.84;1764071;81;21018;-65
2022/07/10 11:30:50;;;;;;;1.70;1.37;;;;;;;25.13;31.74;95256.39;1764099;81;20997;-66
2022/07/10 11:33:20;;;;;;;1.70;1.22;;;;;;;25.12;31.98;95264.10;1734400;81;20989;-65
2022/07/10 11:35:51;;;;;;;1.80;1.30;;;;;;;25.36;30.86;95252.33;1764215;81;21013;-65
2022/07/10 11:38:24;;;;;;;1.72;1.32;;;;;;;25.77;31.15;95251.55;1764445;81;21471;-65
2022/07/10 11:40:51;;;;;;;;;;;;;;;26.08;29.51;95244.91;1766475;81;21068;-65
2022/07/10 11:43:22;;;;;;;2.87;1.40;;;;;;;25.66;29.94;95252.96;1732311;83;20100;-65
2022/07/10 11:45:47;;;;;;;2.17;1.50;;;;;;;25.72;30.74;95258.34;1764009;81;21021;-65
2022/07/10 11:48:19;;;;;;;1.62;1.52;;;;;;;25.10;31.11;95244.50;1764366;81;21016;-65
2022/07/10 11:50:46;;;;;;;;;;;;;;;24.77;31.64;95248.06;1767917;81;21040;-65
2022/07/10 11:53:13;;;;;;;1.55;1.45;;;;;;;24.44;32.03;95249.75;1767334;81;20113;-65